Nearby METAR Reports

 

KCMH - Columbus, Ohio, USA
Distance from station: SW 5mi, 8km
Updated: Tue, 13-Apr-2021 2:51pm EDT
Mostly cloudy
Mostly cloudy
 Wind from W
Wind: W 8 mph , 13 km/h, Gust: 20 mph , 31 km/h
Temperature: 66°F , 19°C
Dew Point: 36°F , 2°C
Humidity: 32%
Barometer: 30.09 inHg , 1019 hPa
Clouds: Mostly cloudy
Visibility: 10 miles , 16 km
Cloud details: Mostly cloudy 25000 ft
2021/04/13 18:51 KCMH 131851Z 28007G17KT 10SM BKN250 19/02 A3009 RMK AO2 SLP188 T01890022
KOSU - Columbus/St Univ, Ohio, USA
Distance from station: W 14mi, 23km
Updated: Tue, 13-Apr-2021 2:53pm EDT
Clear
Clear
 Wind from W
Wind: W 6 mph , 9 km/h, Gust: 16 mph , 26 km/h
Temperature: 64°F , 18°C
Dew Point: 37°F , 3°C
Humidity: 37%
Barometer: 30.10 inHg , 1019.3 hPa
Clouds: Clear
Visibility: 10 miles , 16 km
2021/04/13 18:53 KOSU 131853Z 26005G14KT 10SM CLR 18/03 A3010 RMK AO2 SLP191 T01780033
 
KLCK - Rickenbacker Ang, Ohio, USA
Distance from station: SSW 17mi, 27km
Updated: Tue, 13-Apr-2021 2:55pm EDT
Clear
Clear
 Wind from WSW
Wind: WSW 10 mph , 17 km/h
Temperature: 64°F , 18°C
Dew Point: 37°F , 3°C
Humidity: 37%
Barometer: 30.09 inHg , 1019 hPa
Clouds: Clear
Visibility: 10 miles , 16 km
2021/04/13 18:55 KLCK 131855Z AUTO 25009KT 10SM CLR 18/03 A3009 RMK AO2 T01780034
KVTA - Newark, Ohio, USA
Distance from station: E 19mi, 30km
Updated: Tue, 13-Apr-2021 2:54pm EDT
Clear
Clear
 Wind from WSW
Wind: WSW 13 mph , 20 km/h, Gust: 18 mph , 30 km/h
Temperature: 64°F , 18°C
Dew Point: 43°F , 6°C
Humidity: 46%
Barometer: 30.08 inHg , 1018.6 hPa
Clouds: Clear
Visibility: 10 miles , 16 km
2021/04/13 18:54 KVTA 131854Z AUTO 24011G16KT 10SM CLR 18/06 A3008 RMK AO2 SLP185 T01830056
 
KTZR - Columbus/Bolton, Ohio, USA
Distance from station: WSW 20mi, 31km
Updated: Tue, 13-Apr-2021 2:50pm EDT
Clear
Clear
 Wind from WSW
Wind: WSW 7 mph , 11 km/h
Temperature: 63°F , 17°C
Dew Point: 36°F , 2°C
Humidity: 37%
Barometer: 30.10 inHg , 1019.3 hPa
Clouds: Clear
Visibility: 10 miles , 16 km
2021/04/13 18:50 KTZR 131850Z 25006KT 10SM CLR 17/02 A3010
KLHQ - Lancaster, Ohio, USA
Distance from station: SSE 22mi, 36km
Updated: Tue, 13-Apr-2021 2:53pm EDT
Clear
Clear
 Wind from W
Wind: W 7 mph , 11 km/h
Temperature: 64°F , 18°C
Dew Point: 39°F , 4°C
Humidity: 40%
Barometer: 30.10 inHg , 1019.3 hPa
Clouds: Clear
Visibility: 10 miles , 16 km
2021/04/13 18:53 KLHQ 131853Z AUTO 26006KT 10SM CLR 18/04 A3010 RMK AO2 SLP192 T01780044
 
KDLZ - Delaware, Ohio, USA
Distance from station: NW 23mi, 36km
Updated: Tue, 13-Apr-2021 2:55pm EDT
Clear
Clear
 Wind from W
Wind: W 7 mph , 11 km/h
Temperature: 63°F , 17°C
Dew Point: 37°F , 3°C
Humidity: 39%
Barometer: 30.10 inHg , 1019.3 hPa
Clouds: Clear
Visibility: 10 miles , 16 km
2021/04/13 18:55 KDLZ 131855Z AUTO 26006KT 10SM CLR 17/03 A3010 RMK AO2
K4I3 - Mt Vernon/Knox, Ohio, USA
Distance from station: NE 25mi, 40km
Updated: Tue, 13-Apr-2021 2:55pm EDT
Clear
Clear
 Wind from WSW
Wind: WSW 9 mph , 15 km/h, Gust: 17 mph , 28 km/h
Temperature: 64°F , 18°C
Dew Point: 37°F , 3°C
Humidity: 37%
Barometer: 30.10 inHg , 1019.3 hPa
Clouds: Clear
Visibility: 10 miles , 16 km
2021/04/13 18:55 K4I3 131855Z AUTO 24008G15KT 10SM CLR 18/03 A3010 RMK AO2
 
KMRT - Marysville, Ohio, USA
Distance from station: WNW 30mi, 49km
Updated: Tue, 13-Apr-2021 2:55pm EDT
Clear
Clear
 Wind from W
Wind: W 9 mph , 15 km/h, Gust: 13 mph , 20 km/h
Temperature: 63°F , 17°C
Dew Point: 37°F , 3°C
Humidity: 39%
Barometer: 30.10 inHg , 1019.3 hPa
Clouds: Clear
Visibility: 10 miles , 16 km
2021/04/13 18:55 KMRT 131855Z AUTO 28008G11KT 10SM CLR 17/03 A3010 RMK AO2 T01670026
KMNN - Marion, Ohio, USA
Distance from station: NNW 41mi, 67km
Updated: Tue, 13-Apr-2021 2:53pm EDT
Clear
Clear
 Wind from varies
Wind: varies 3 mph , 6 km/h
Temperature: 61°F , 16°C
Dew Point: 36°F , 2°C
Humidity: 39%
Barometer: 30.09 inHg , 1019 hPa
Clouds: Clear
Visibility: 10 miles , 16 km
2021/04/13 18:53 KMNN 131853Z AUTO VRB03KT 10SM CLR 16/02 A3009 RMK AO2 SLP191 T01610022
 
KZZV - Zanesville, Ohio, USA
Distance from station: E 49mi, 79km
Updated: Tue, 13-Apr-2021 2:53pm EDT
Partly cloudy
Partly cloudy
 Wind from W
Wind: W 12 mph , 19 km/h
Temperature: 66°F , 19°C
Dew Point: 36°F , 2°C
Humidity: 32%
Barometer: 30.07 inHg , 1018.3 hPa
Clouds: Partly cloudy
Visibility: 10 miles , 16 km
Cloud details: Partly cloudy 8500 ft
2021/04/13 18:53 KZZV 131853Z AUTO 27010KT 10SM SCT085 19/02 A3007 RMK AO2 SLP182 T01890017